Time;durP1;ratioP1;P1;durP2;ratioP2;P2;SDS_P1;SDS_P2;PMS_P1;PMS_P2;Temp;Humidity;BMP_temperature;BMP_pressure;BME280_temperature;BME280_humidity;BME280_pressure;Samples;Min_cycle;Max_cycle;Signal;HPM_P1;HPM_P2
2022/11/18 00:01:28;;;;;;;1.08;0.98;;;-1.20;99.90;;;;;;5050570;28;20045;-79
2022/11/18 00:03:55;;;;;;;1.95;1.10;;;-1.30;99.90;;;;;;5040783;28;20077;-77
2022/11/18 00:06:26;;;;;;;2.45;1.10;;;-1.30;99.90;;;;;;5032076;28;20045;-77
2022/11/18 00:08:55;;;;;;;1.73;1.10;;;-1.30;99.90;;;;;;5031030;28;20095;-77
2022/11/18 00:14:19;;;;;;;1.52;1.10;;;-1.30;99.90;;;;;;5049072;28;20048;-78
2022/11/18 00:16:49;;;;;;;1.80;1.00;;;-1.30;99.90;;;;;;5047915;28;20429;-79
2022/11/18 00:19:17;;;;;;;1.00;1.00;;;-1.30;99.90;;;;;;5046557;28;20049;-78
2022/11/18 00:21:46;;;;;;;0.90;0.65;;;-1.30;99.90;;;;;;5065386;28;20045;-78
2022/11/18 00:24:13;;;;;;;1.70;0.98;;;-1.30;99.90;;;;;;5049690;28;20156;-78
2022/11/18 00:26:41;;;;;;;1.33;1.17;;;-1.30;99.90;;;;;;5042370;28;20061;-78
2022/11/18 00:29:09;;;;;;;1.67;1.15;;;-1.30;99.90;;;;;;5074181;28;20132;-77
2022/11/18 00:31:37;;;;;;;1.77;0.95;;;-1.40;99.90;;;;;;5043615;28;20037;-78
2022/11/18 00:34:05;;;;;;;4.80;1.30;;;-1.40;99.90;;;;;;5046177;28;20080;-77
2022/11/18 00:36:33;;;;;;;3.10;0.90;;;-1.40;99.90;;;;;;5045172;28;20045;-78
2022/11/18 00:39:02;;;;;;;1.08;0.85;;;-1.40;99.90;;;;;;5038143;28;20111;-78
2022/11/18 00:42:49;;;;;;;1.50;1.02;;;-1.50;99.90;;;;;;5066221;28;20061;-78
2022/11/18 00:44:16;;;;;;;1.20;1.10;;;-1.50;99.90;;;;;;5058579;28;20049;-78
2022/11/18 00:46:44;;;;;;;1.67;1.00;;;-1.50;99.90;;;;;;5047271;28;20041;-78
2022/11/18 00:49:11;;;;;;;3.33;1.08;;;-1.50;99.90;;;;;;5050786;28;20053;-79
2022/11/18 00:51:38;;;;;;;1.77;1.10;;;-1.50;99.90;;;;;;5055565;28;20041;-79
2022/11/18 00:54:07;;;;;;;1.40;1.30;;;-1.50;99.90;;;;;;5056681;28;20163;-78
2022/11/18 00:56:34;;;;;;;2.47;1.50;;;-1.40;99.90;;;;;;5044882;28;20057;-79
2022/11/18 00:59:02;;;;;;;1.70;1.60;;;-1.30;99.90;;;;;;5062937;28;20139;-78
2022/11/18 01:01:29;;;;;;;3.03;1.50;;;-1.20;99.90;;;;;;5058925;28;20045;-76
2022/11/18 01:03:56;;;;;;;1.55;1.45;;;-1.10;99.90;;;;;;5046192;28;20049;-77
2022/11/18 01:06:23;;;;;;;1.80;1.45;;;-1.10;99.90;;;;;;5015076;28;20124;-77
2022/11/18 01:08:51;;;;;;;1.88;1.52;;;-1.10;99.90;;;;;;5043701;28;20517;-77
2022/11/18 01:14:04;;;;;;;1.65;1.10;;;-1.00;99.90;;;;;;5030610;28;20144;-78
2022/11/18 01:16:32;;;;;;;1.50;1.40;;;-1.00;99.90;;;;;;5029198;28;20080;-77
2022/11/18 01:18:59;;;;;;;1.60;1.50;;;-1.10;99.90;;;;;;5042362;28;20102;-78
2022/11/18 01:21:26;;;;;;;3.28;1.73;;;-1.20;99.90;;;;;;5038026;28;20045;-76
2022/11/18 01:23:54;;;;;;;1.48;1.33;;;-1.30;99.90;;;;;;5044036;28;20057;-77
2022/11/18 01:26:22;;;;;;;1.50;1.20;;;-1.40;99.90;;;;;;5053062;28;20040;-77
2022/11/18 01:28:50;;;;;;;1.67;1.40;;;-1.50;99.90;;;;;;5048856;28;20053;-77
2022/11/18 01:31:19;;;;;;;2.35;1.60;;;-1.50;99.90;;;;;;5051944;28;20045;-79
2022/11/18 01:33:47;;;;;;;1.38;1.27;;;-1.50;99.90;;;;;;5041185;28;20319;-77
2022/11/18 01:36:19;;;;;;;2.75;1.80;;;-1.60;99.90;;;;;;5032783;28;20053;-79
2022/11/18 01:38:48;;;;;;;2.88;1.70;;;-1.60;99.90;;;;;;5014669;28;20072;-78
2022/11/18 01:41:17;;;;;;;3.47;1.33;;;-1.60;99.90;;;;;;5049581;28;20056;-79
2022/11/18 01:43:55;;;;;;;1.58;1.42;;;-1.60;99.90;;;;;;5038771;28;20091;-78
2022/11/18 01:46:25;;;;;;;1.92;1.65;;;-1.70;99.90;;;;;;5045326;28;20046;-78
2022/11/18 01:48:58;;;;;;;1.90;1.50;;;-1.70;99.90;;;;;;5071036;28;20068;-78
2022/11/18 01:51:37;;;;;;;1.42;1.10;;;-1.70;99.90;;;;;;5063860;28;20053;-78
2022/11/18 01:54:10;;;;;;;1.75;1.42;;;-1.70;99.90;;;;;;5056976;28;20564;-78
2022/11/18 01:56:42;;;;;;;2.30;1.50;;;-1.70;99.90;;;;;;5048342;28;20056;-78
2022/11/18 01:59:15;;;;;;;1.65;1.38;;;-1.70;99.90;;;;;;5048919;28;20084;-78
2022/11/18 02:01:42;;;;;;;1.52;1.42;;;-1.70;99.90;;;;;;5034578;28;20430;-78
2022/11/18 02:04:12;;;;;;;1.73;1.52;;;-1.50;99.90;;;;;;5045736;28;20057;-79
2022/11/18 02:06:39;;;;;;;3.85;1.40;;;-1.40;99.90;;;;;;5044846;28;20577;-77
2022/11/18 02:09:07;;;;;;;1.60;1.50;;;-1.30;99.90;;;;;;5036257;28;20334;-78
2022/11/18 02:11:53;;;;;;;1.80;1.70;;;-1.20;99.90;;;;;;5048868;28;20075;-78
2022/11/18 02:14:26;;;;;;;1.60;1.40;;;-1.10;99.90;;;;;;5048178;28;20099;-77
2022/11/18 02:17:04;;;;;;;1.85;1.73;;;-1.00;99.90;;;;;;5032801;28;20060;-78
2022/11/18 02:20:23;;;;;;;2.00;1.80;;;-0.90;99.90;;;;;;5041810;28;20052;-78
2022/11/18 02:23:47;;;;;;;2.08;1.73;;;-0.90;99.90;;;;;;5014613;28;20193;-78
2022/11/18 02:27:20;;;;;;;3.25;1.75;;;-0.90;99.90;;;;;;5016599;28;20056;-78
2022/11/18 02:29:56;;;;;;;1.80;1.70;;;-0.80;99.90;;;;;;5063246;28;20083;-79
2022/11/18 02:32:27;;;;;;;2.08;1.77;;;-0.80;99.90;;;;;;5047780;28;20077;-76
2022/11/18 02:35:03;;;;;;;2.10;1.90;;;-0.90;99.90;;;;;;5032317;28;20865;-79
2022/11/18 02:37:36;;;;;;;3.10;1.92;;;-0.90;99.90;;;;;;5047515;28;20071;-78
2022/11/18 02:40:12;;;;;;;1.73;1.45;;;-0.90;99.90;;;;;;5044994;28;20139;-79
2022/11/18 02:42:43;;;;;;;3.20;2.33;;;-0.90;99.90;;;;;;5041112;28;20500;-78
2022/11/18 02:45:17;;;;;;;2.58;1.85;;;-0.90;99.90;;;;;;5046777;28;20416;-78
2022/11/18 02:47:47;;;;;;;2.17;1.85;;;-0.90;99.90;;;;;;5033153;28;20053;-78
2022/11/18 02:50:20;;;;;;;1.98;1.83;;;-0.80;99.90;;;;;;5049254;28;20095;-79
2022/11/18 02:52:54;;;;;;;1.58;1.48;;;-0.80;99.90;;;;;;5038978;28;20049;-78
2022/11/18 02:55:23;;;;;;;2.38;1.80;;;-0.80;99.90;;;;;;5051320;28;20087;-78
2022/11/18 02:57:52;;;;;;;2.67;1.90;;;-0.80;99.90;;;;;;5052112;28;20052;-78
2022/11/18 03:00:21;;;;;;;2.60;1.55;;;-0.80;99.90;;;;;;5043959;28;20127;-78
2022/11/18 03:02:49;;;;;;;1.48;1.38;;;-0.80;99.90;;;;;;5035070;28;20589;-77
2022/11/18 03:05:22;;;;;;;2.08;1.67;;;-0.80;99.90;;;;;;5051931;28;20052;-78
2022/11/18 03:07:56;;;;;;;2.00;1.80;;;-0.80;99.90;;;;;;5052758;28;20106;-77
2022/11/18 03:10:28;;;;;;;4.38;1.77;;;-0.80;99.90;;;;;;5049764;28;20140;-76
2022/11/18 03:13:05;;;;;;;6.05;2.35;;;-0.80;99.90;;;;;;5051465;28;20539;-77
2022/11/18 03:15:42;;;;;;;2.60;1.58;;;-0.80;99.90;;;;;;5039179;28;20627;-77
2022/11/18 03:18:18;;;;;;;3.33;1.60;;;-0.90;99.90;;;;;;5050362;28;20110;-77
2022/11/18 03:20:50;;;;;;;3.63;2.08;;;-0.80;99.90;;;;;;5030718;28;20050;-77
2022/11/18 03:23:27;;;;;;;2.42;2.00;;;-0.80;99.90;;;;;;5037147;28;20119;-77
2022/11/18 03:25:59;;;;;;;2.40;1.90;;;-0.80;99.90;;;;;;5050211;28;20391;-77
2022/11/18 03:28:32;;;;;;;3.63;2.22;;;-0.80;99.90;;;;;;5036766;28;20057;-77
2022/11/18 03:31:08;;;;;;;2.97;1.92;;;-0.80;99.90;;;;;;5050997;28;20041;-78
2022/11/18 03:33:42;;;;;;;4.85;2.65;;;-0.80;99.90;;;;;;5031966;28;20052;-78
2022/11/18 03:36:12;;;;;;;3.63;2.40;;;-0.70;99.90;;;;;;5063537;28;20049;-78
2022/11/18 03:38:46;;;;;;;3.72;2.38;;;-0.70;99.90;;;;;;5068021;28;20047;-77
2022/11/18 03:41:15;;;;;;;3.00;2.25;;;-0.70;99.90;;;;;;5059711;28;20091;-77
2022/11/18 03:43:49;;;;;;;2.65;2.33;;;-0.70;99.90;;;;;;5042273;28;20049;-78
2022/11/18 03:46:23;;;;;;;2.40;2.17;;;-0.60;99.90;;;;;;5038119;28;20065;-78
2022/11/18 03:48:53;;;;;;;3.47;2.33;;;-0.60;99.90;;;;;;5050510;28;20144;-79
2022/11/18 03:51:24;;;;;;;2.88;2.53;;;-0.60;99.90;;;;;;5051235;28;20059;-79
2022/11/18 03:53:56;;;;;;;2.90;2.45;;;-0.60;99.90;;;;;;5050261;28;20162;-77
2022/11/18 03:56:31;;;;;;;5.07;2.88;;;-0.60;99.90;;;;;;5050608;28;20063;-78
2022/11/18 03:59:05;;;;;;;3.83;2.90;;;-0.60;99.90;;;;;;5048711;28;20053;-78
2022/11/18 04:01:39;;;;;;;3.25;2.20;;;-0.60;99.90;;;;;;5044964;28;20045;-78
2022/11/18 04:04:07;;;;;;;2.70;2.50;;;-0.60;99.90;;;;;;5036170;28;20529;-79
2022/11/18 04:06:39;;;;;;;2.42;2.13;;;-0.60;99.90;;;;;;5047936;28;20033;-79
2022/11/18 04:09:13;;;;;;;4.93;2.30;;;-0.50;99.90;;;;;;5050810;28;20080;-77
2022/11/18 04:12:05;;;;;;;4.32;2.40;;;-0.60;99.90;;;;;;5038793;28;20148;-74
2022/11/18 04:14:34;;;;;;;2.53;1.70;;;-0.50;99.90;;;;;;5063513;28;20052;-75
2022/11/18 04:17:08;;;;;;;3.63;2.85;;;-0.60;99.90;;;;;;5051205;28;20147;-75
2022/11/18 04:19:39;;;;;;;4.18;2.25;;;-0.50;99.90;;;;;;5051499;28;20048;-75
2022/11/18 04:22:07;;;;;;;3.83;2.08;;;-0.60;99.90;;;;;;5047118;28;20057;-76
2022/11/18 04:24:34;;;;;;;3.55;2.13;;;-0.50;99.90;;;;;;5046620;28;20307;-76
2022/11/18 04:27:02;;;;;;;3.75;2.47;;;-0.50;99.90;;;;;;5049642;28;20076;-75
2022/11/18 04:29:30;;;;;;;6.05;2.28;;;-0.50;99.90;;;;;;5064339;28;20044;-76
2022/11/18 04:31:58;;;;;;;2.38;2.10;;;-0.50;99.90;;;;;;5048489;28;20072;-76
2022/11/18 04:34:28;;;;;;;17.23;2.30;;;-0.50;99.90;;;;;;5036990;28;20051;-76
2022/11/18 04:36:55;;;;;;;3.10;2.35;;;-0.50;99.90;;;;;;5048994;28;20106;-76
2022/11/18 04:39:23;;;;;;;3.08;2.15;;;-0.50;99.90;;;;;;5048470;28;20875;-76
2022/11/18 04:41:56;;;;;;;2.35;1.73;;;-0.40;99.90;;;;;;5048453;28;20056;-76
2022/11/18 04:44:25;;;;;;;3.15;2.00;;;-0.50;99.90;;;;;;5039477;28;20053;-75
2022/11/18 04:46:54;;;;;;;2.25;1.65;;;-0.50;99.90;;;;;;5050661;28;20044;-76
2022/11/18 04:49:22;;;;;;;2.47;1.50;;;-0.50;99.90;;;;;;5044391;28;20478;-77
2022/11/18 04:51:51;;;;;;;2.10;1.75;;;-0.60;99.90;;;;;;5030535;28;20045;-75
2022/11/18 04:54:20;;;;;;;3.95;2.33;;;-0.60;99.90;;;;;;5033485;28;20048;-78
2022/11/18 04:56:48;;;;;;;3.03;2.00;;;-0.70;99.90;;;;;;5049457;28;20126;-75
2022/11/18 04:59:18;;;;;;;10.13;1.80;;;-0.70;99.90;;;;;;5049840;28;20049;-76
2022/11/18 05:01:45;;;;;;;6.22;1.67;;;-0.60;99.90;;;;;;5049078;28;20095;-76
2022/11/18 05:04:16;;;;;;;2.35;2.15;;;-0.60;99.90;;;;;;5049112;28;20049;-76
2022/11/18 05:06:43;;;;;;;3.15;1.90;;;-0.50;99.90;;;;;;5047686;28;20410;-75
2022/11/18 05:09:15;;;;;;;2.10;1.45;;;-0.50;99.90;;;;;;5033792;28;20079;-75
2022/11/18 05:14:28;;;;;;;3.92;1.75;;;-0.50;99.90;;;;;;5049763;28;20049;-75
2022/11/18 05:16:56;;;;;;;1.83;1.45;;;-0.50;99.90;;;;;;5050463;28;20040;-72
2022/11/18 05:19:24;;;;;;;2.97;2.13;;;-0.50;99.90;;;;;;5050046;28;20057;-71
2022/11/18 05:21:51;;;;;;;2.03;1.52;;;-0.60;99.90;;;;;;5049710;28;20040;-72
2022/11/18 05:24:22;;;;;;;5.95;1.80;;;-0.60;99.90;;;;;;5048858;28;20429;-74
2022/11/18 05:26:51;;;;;;;3.45;1.45;;;-0.60;99.90;;;;;;5046938;28;20130;-72
2022/11/18 05:29:20;;;;;;;1.88;1.50;;;-0.60;99.90;;;;;;5052729;28;20049;-72
2022/11/18 05:31:48;;;;;;;4.60;1.58;;;-0.70;99.90;;;;;;5055826;28;20630;-76
2022/11/18 05:34:19;;;;;;;2.10;1.50;;;-0.60;99.90;;;;;;5050862;28;20126;-76
2022/11/18 05:36:46;;;;;;;1.50;1.10;;;-0.60;99.90;;;;;;5066388;28;20052;-76
2022/11/18 05:39:14;;;;;;;2.03;1.40;;;-0.70;99.90;;;;;;5066352;28;20168;-76
2022/11/18 05:44:28;;;;;;;1.60;1.50;;;-0.80;99.90;;;;;;5063348;28;20050;-72
2022/11/18 05:46:59;;;;;;;1.52;1.27;;;-0.80;99.90;;;;;;5065050;28;20581;-73
2022/11/18 05:49:26;;;;;;;8.45;1.50;;;-0.90;99.90;;;;;;5048170;28;20573;-74
2022/11/18 05:51:54;;;;;;;2.05;1.27;;;-0.90;99.90;;;;;;5048410;28;20048;-74
2022/11/18 05:54:22;;;;;;;4.80;1.40;;;-0.90;99.90;;;;;;5047207;28;20049;-73
2022/11/18 05:56:51;;;;;;;6.68;2.28;;;-0.90;99.90;;;;;;5062496;28;20041;-74
2022/11/18 05:59:19;;;;;;;5.25;1.20;;;-0.90;99.90;;;;;;5046528;28;20095;-77
2022/11/18 06:01:53;;;;;;;2.13;1.45;;;-0.90;99.90;;;;;;5044215;28;20441;-80
2022/11/18 06:04:26;;;;;;;4.25;1.35;;;-0.90;99.90;;;;;;5048848;28;20049;-75
2022/11/18 06:06:59;;;;;;;3.10;1.52;;;-0.90;99.90;;;;;;5030659;28;20111;-76
2022/11/18 06:09:31;;;;;;;4.78;2.00;;;-0.90;99.90;;;;;;5032315;28;20057;-76
2022/11/18 06:12:02;;;;;;;2.28;1.52;;;-0.90;99.90;;;;;;5049447;28;20049;-76
2022/11/18 06:14:35;;;;;;;3.40;2.20;;;-0.80;99.90;;;;;;5033819;28;20128;-77
2022/11/18 06:17:08;;;;;;;8.50;2.78;;;-0.90;99.90;;;;;;5066394;28;20493;-77
2022/11/18 06:19:36;;;;;;;2.42;1.60;;;-0.90;99.90;;;;;;5072602;28;20076;-74
2022/11/18 06:22:04;;;;;;;1.85;1.42;;;-1.00;99.90;;;;;;5070886;28;20789;-75
2022/11/18 06:24:32;;;;;;;4.88;3.30;;;-1.00;99.90;;;;;;5052659;28;20048;-76
2022/11/18 06:27:01;;;;;;;1.55;1.25;;;-1.00;99.90;;;;;;5064775;28;20506;-76
2022/11/18 06:29:29;;;;;;;5.20;1.42;;;-1.00;99.90;;;;;;5051606;28;20127;-76
2022/11/18 06:31:57;;;;;;;7.47;1.25;;;-1.00;99.90;;;;;;5069368;28;20099;-76
2022/11/18 06:34:24;;;;;;;1.20;1.13;;;-1.00;99.90;;;;;;5069594;28;20106;-76
2022/11/18 06:36:52;;;;;;;1.92;1.30;;;-1.00;99.90;;;;;;5052815;28;20144;-76
2022/11/18 06:39:19;;;;;;;1.60;1.48;;;-1.00;99.90;;;;;;5052156;28;20056;-76
2022/11/18 06:41:46;;;;;;;2.30;1.23;;;-1.00;99.90;;;;;;5054450;28;20072;-76
2022/11/18 06:44:15;;;;;;;7.32;1.52;;;-1.00;99.90;;;;;;5053920;28;20143;-76
2022/11/18 06:46:58;;;;;;;1.77;1.00;;;-1.00;99.90;;;;;;5056513;28;20413;-75
2022/11/18 06:49:27;;;;;;;1.92;1.00;;;-0.90;99.90;;;;;;5045591;28;20111;-76
2022/11/18 06:51:55;;;;;;;1.67;1.15;;;-0.90;99.90;;;;;;5053931;28;20094;-76
2022/11/18 06:54:22;;;;;;;4.40;1.17;;;-0.90;99.90;;;;;;5069845;28;20557;-74
2022/11/18 06:56:49;;;;;;;12.20;1.30;;;-0.90;99.90;;;;;;5053714;28;20063;-75
2022/11/18 06:59:22;;;;;;;4.40;1.10;;;-1.00;99.90;;;;;;5053678;28;20061;-75
2022/11/18 07:01:51;;;;;;;12.20;1.63;;;-1.00;99.90;;;;;;5069784;28;20420;-74
2022/11/18 07:04:19;;;;;;;4.03;1.38;;;-1.00;99.90;;;;;;5069984;28;20477;-78
2022/11/18 07:06:47;;;;;;;7.32;1.35;;;-1.00;99.90;;;;;;5051640;28;20420;-73
2022/11/18 07:09:14;;;;;;;5.90;1.40;;;-1.00;99.90;;;;;;5053362;28;20099;-75
2022/11/18 07:11:42;;;;;;;2.47;0.90;;;-1.00;99.90;;;;;;5048629;28;20056;-73
2022/11/18 07:14:10;;;;;;;4.47;1.50;;;-1.00;99.90;;;;;;5043437;28;20140;-74
2022/11/18 07:16:38;;;;;;;3.38;1.58;;;-1.00;99.90;;;;;;5050201;28;20036;-73
2022/11/18 07:19:09;;;;;;;1.30;1.17;;;-1.00;99.90;;;;;;5040319;28;20077;-73
2022/11/18 07:21:37;;;;;;;3.33;1.20;;;-0.90;99.90;;;;;;5046521;28;20048;-71
2022/11/18 07:24:07;;;;;;;5.32;1.55;;;-0.80;99.90;;;;;;5075473;28;20037;-73
2022/11/18 07:26:35;;;;;;;3.33;1.65;;;-0.80;99.90;;;;;;5051510;28;20091;-74
2022/11/18 07:29:03;;;;;;;2.45;1.27;;;-0.70;99.90;;;;;;5066838;28;20514;-73
2022/11/18 07:31:31;;;;;;;2.45;1.88;;;-0.80;99.90;;;;;;5050560;28;20056;-73
2022/11/18 07:34:00;;;;;;;1.80;1.20;;;-0.80;99.90;;;;;;5051688;28;20059;-73
2022/11/18 07:36:28;;;;;;;7.72;1.40;;;-0.90;99.90;;;;;;5048818;28;20075;-74
2022/11/18 07:38:58;;;;;;;3.80;1.30;;;-0.90;99.90;;;;;;5066807;28;20049;-72
2022/11/18 07:41:28;;;;;;;3.83;2.72;;;-0.90;99.90;;;;;;5050459;28;20049;-73
2022/11/18 07:43:58;;;;;;;5.18;1.35;;;-0.80;99.90;;;;;;5051544;28;20586;-74
2022/11/18 07:46:28;;;;;;;3.75;1.25;;;-0.80;99.90;;;;;;5050974;28;20045;-73
2022/11/18 07:48:59;;;;;;;4.47;1.45;;;-0.80;99.90;;;;;;5049327;28;20049;-72
2022/11/18 07:51:28;;;;;;;1.38;0.90;;;-0.80;99.90;;;;;;5049672;28;20099;-73
2022/11/18 07:53:56;;;;;;;1.65;1.10;;;-0.80;99.90;;;;;;5051651;28;20147;-73
2022/11/18 07:56:24;;;;;;;6.25;1.45;;;-0.80;99.90;;;;;;5052170;28;20080;-73
2022/11/18 07:58:53;;;;;;;4.07;1.52;;;-0.80;99.90;;;;;;5056276;28;20056;-74
2022/11/18 08:01:23;;;;;;;3.08;1.10;;;-0.80;99.90;;;;;;5060857;28;20053;-73
2022/11/18 08:03:51;;;;;;;2.67;1.30;;;-0.70;99.90;;;;;;5065147;28;20068;-74
2022/11/18 08:06:20;;;;;;;3.88;1.27;;;-0.70;99.90;;;;;;5057270;28;20336;-75
2022/11/18 08:08:48;;;;;;;3.75;1.10;;;-0.80;99.90;;;;;;5053876;28;20103;-76
2022/11/18 08:11:18;;;;;;;1.88;1.00;;;-0.70;99.90;;;;;;5055488;28;20135;-75
2022/11/18 08:13:46;;;;;;;3.17;1.58;;;-0.70;99.90;;;;;;5055350;28;20037;-73
2022/11/18 08:16:17;;;;;;;1.92;1.20;;;-0.70;99.90;;;;;;5041484;28;20047;-73
2022/11/18 08:18:44;;;;;;;1.90;1.27;;;-0.70;99.90;;;;;;5081275;28;20086;-73
2022/11/18 08:21:12;;;;;;;3.08;1.30;;;-0.60;99.90;;;;;;5066350;28;20266;-72
2022/11/18 08:23:41;;;;;;;1.35;1.08;;;-0.60;99.90;;;;;;5068304;28;20052;-73
2022/11/18 08:26:12;;;;;;;2.25;1.80;;;-0.70;99.90;;;;;;5067565;28;20051;-75
2022/11/18 08:28:40;;;;;;;5.45;4.00;;;-0.60;99.90;;;;;;5067788;28;20392;-75
2022/11/18 08:31:12;;;;;;;5.57;1.48;;;-0.60;99.90;;;;;;5066173;28;20055;-73
2022/11/18 08:33:39;;;;;;;8.40;1.90;;;-0.60;99.90;;;;;;5064336;28;20447;-73
2022/11/18 08:36:09;;;;;;;2.35;1.65;;;-0.60;99.90;;;;;;5068521;28;20044;-73
2022/11/18 08:38:36;;;;;;;4.45;1.70;;;-0.60;99.90;;;;;;5067478;28;20492;-73
2022/11/18 08:41:06;;;;;;;11.57;2.15;;;-0.60;99.90;;;;;;5060371;28;20163;-74
2022/11/18 08:43:34;;;;;;;4.82;1.60;;;-0.60;99.90;;;;;;5066516;28;20041;-74
2022/11/18 08:46:02;;;;;;;3.53;1.58;;;-0.60;99.90;;;;;;5066049;28;20132;-73
2022/11/18 08:48:29;;;;;;;1.77;1.63;;;-0.60;99.90;;;;;;5067175;28;20143;-75
2022/11/18 08:50:58;;;;;;;1.88;1.55;;;-0.70;99.90;;;;;;5067149;28;20055;-75
2022/11/18 08:53:26;;;;;;;4.18;1.83;;;-0.60;99.90;;;;;;5081566;28;20642;-73
2022/11/18 08:55:56;;;;;;;5.60;1.85;;;-0.60;99.90;;;;;;5059143;28;20544;-73
2022/11/18 08:58:26;;;;;;;4.07;1.60;;;-0.50;99.90;;;;;;5056475;28;20053;-74
2022/11/18 09:00:53;;;;;;;4.38;2.38;;;-0.40;99.90;;;;;;5066208;28;20493;-74
2022/11/18 09:03:21;;;;;;;3.22;1.45;;;-0.40;99.90;;;;;;5066981;28;20409;-74
2022/11/18 09:05:49;;;;;;;2.58;1.77;;;-0.30;99.90;;;;;;5067037;28;20048;-74
2022/11/18 09:08:16;;;;;;;3.30;1.98;;;-0.20;99.90;;;;;;5064474;28;20048;-75
2022/11/18 09:10:43;;;;;;;5.78;2.03;;;-0.20;99.90;;;;;;5066583;28;20040;-74
2022/11/18 09:13:11;;;;;;;3.72;1.42;;;-0.10;99.90;;;;;;5067143;28;20044;-73
2022/11/18 09:15:40;;;;;;;3.67;1.48;;;-0.10;99.90;;;;;;5064003;28;20129;-75
2022/11/18 09:18:09;;;;;;;5.30;1.42;;;-0.10;99.90;;;;;;5065418;28;20055;-73
2022/11/18 09:20:36;;;;;;;2.25;1.33;;;-0.10;99.90;;;;;;5063069;28;20048;-73
2022/11/18 09:23:03;;;;;;;3.45;1.50;;;-0.20;99.90;;;;;;5062367;28;20089;-73
2022/11/18 09:25:31;;;;;;;4.07;1.73;;;-0.30;99.90;;;;;;5061012;28;20040;-75
2022/11/18 09:27:58;;;;;;;3.72;1.10;;;-0.30;99.90;;;;;;5061900;28;20539;-73
2022/11/18 09:30:25;;;;;;;2.03;1.30;;;-0.30;99.90;;;;;;5063962;28;20135;-72
2022/11/18 09:32:54;;;;;;;3.13;1.40;;;-0.30;99.90;;;;;;5065473;28;20048;-74
2022/11/18 09:35:22;;;;;;;4.72;1.27;;;-0.10;99.90;;;;;;5065127;28;20069;-74
2022/11/18 09:37:49;;;;;;;7.93;1.85;;;0.30;99.90;;;;;;5065400;28;20064;-75
2022/11/18 09:40:18;;;;;;;3.78;1.23;;;0.50;99.90;;;;;;5061740;28;20804;-72
2022/11/18 09:42:57;;;;;;;2.90;1.02;;;0.70;99.90;;;;;;5062375;28;20784;-72
2022/11/18 09:45:31;;;;;;;1.77;1.27;;;1.00;99.90;;;;;;5062356;28;20055;-73
2022/11/18 09:48:06;;;;;;;1.20;0.88;;;1.30;99.90;;;;;;5063592;28;20385;-73
2022/11/18 09:50:33;;;;;;;1.58;1.15;;;1.60;99.90;;;;;;5065324;28;20063;-75
2022/11/18 09:53:15;;;;;;;3.47;2.20;;;1.90;99.90;;;;;;5065924;28;20055;-76
2022/11/18 09:55:43;;;;;;;2.22;1.05;;;2.40;99.90;;;;;;5081779;28;20831;-73
2022/11/18 09:58:17;;;;;;;6.22;1.30;;;2.30;99.90;;;;;;5073585;28;20048;-73
2022/11/18 10:00:45;;;;;;;3.28;1.13;;;2.20;99.90;;;;;;5055687;28;20042;-75
2022/11/18 10:03:23;;;;;;;4.53;1.02;;;2.10;99.90;;;;;;5052446;28;20630;-74
2022/11/18 10:05:57;;;;;;;7.75;1.70;;;1.80;99.90;;;;;;5062163;28;20048;-75
2022/11/18 10:08:30;;;;;;;3.30;0.90;;;1.50;99.90;;;;;;5064411;28;20576;-76
2022/11/18 10:11:05;;;;;;;3.15;1.17;;;1.30;99.90;;;;;;5061890;28;20044;-75
2022/11/18 10:13:51;;;;;;;3.85;1.17;;;1.10;99.90;;;;;;5063375;28;20212;-74
2022/11/18 10:16:42;;;;;;;7.93;1.38;;;1.10;99.90;;;;;;5066118;28;20052;-75
2022/11/18 10:19:26;;;;;;;4.65;1.30;;;1.10;99.90;;;;;;5064725;28;20075;-76
2022/11/18 10:22:07;;;;;;;5.45;1.17;;;1.20;99.90;;;;;;5066110;28;20127;-78
2022/11/18 10:24:40;;;;;;;2.35;0.80;;;1.10;99.90;;;;;;5065005;28;20143;-78
2022/11/18 10:27:14;;;;;;;2.08;1.35;;;1.10;99.90;;;;;;5064612;28;20143;-77
2022/11/18 10:29:42;;;;;;;2.63;0.80;;;1.10;99.90;;;;;;5043557;28;20492;-77
2022/11/18 10:32:14;;;;;;;0.65;0.65;;;1.30;99.90;;;;;;5065192;28;20127;-75
2022/11/18 10:34:50;;;;;;;3.00;0.80;;;1.30;99.90;;;;;;5060778;28;20488;-77
2022/11/18 10:37:27;;;;;;;2.60;1.20;;;1.20;99.90;;;;;;5062933;28;20051;-78
2022/11/18 10:39:57;;;;;;;4.03;1.00;;;1.10;99.90;;;;;;5060414;28;20045;-76
2022/11/18 10:42:30;;;;;;;4.32;0.85;;;0.90;99.90;;;;;;5049188;28;20057;-78
2022/11/18 10:45:17;;;;;;;2.60;0.80;;;0.90;99.90;;;;;;5048553;28;20103;-79
2022/11/18 10:47:57;;;;;;;2.13;1.20;;;0.90;99.90;;;;;;5032069;28;20058;-78
2022/11/18 10:50:33;;;;;;;3.08;1.77;;;0.90;99.90;;;;;;5029882;28;20112;-82
2022/11/18 10:53:01;;;;;;;3.50;1.02;;;0.80;99.90;;;;;;5049667;28;20520;-79
2022/11/18 10:55:29;;;;;;;3.50;1.52;;;0.80;99.90;;;;;;5039117;28;20046;-79
2022/11/18 10:58:02;;;;;;;19.50;2.50;;;0.90;99.90;;;;;;5032105;28;20041;-79
2022/11/18 11:00:48;;;;;;;3.20;0.75;;;0.90;99.90;;;;;;5032266;28;20585;-79
2022/11/18 11:03:26;;;;;;;3.42;1.33;;;0.80;99.90;;;;;;5034946;28;20045;-79
2022/11/18 11:06:18;;;;;;;6.45;1.10;;;0.80;99.90;;;;;;5048139;28;20057;-79
2022/11/18 11:08:51;;;;;;;2.67;1.15;;;0.80;99.90;;;;;;5034135;28;20119;-80
2022/11/18 11:11:28;;;;;;;5.00;1.10;;;0.80;99.90;;;;;;5032678;28;20042;-81
2022/11/18 11:14:22;;;;;;;1.75;0.90;;;0.90;99.90;;;;;;5041934;28;20135;-79
2022/11/18 11:17:08;;;;;;;0.65;0.60;;;1.10;99.90;;;;;;5054001;28;20061;-81
2022/11/18 11:19:50;;;;;;;4.53;1.00;;;1.50;99.90;;;;;;5054221;28;20494;-81
2022/11/18 11:22:20;;;;;;;1.15;0.73;;;1.60;99.90;;;;;;5082100;28;20065;-78
2022/11/18 11:24:47;;;;;;;4.82;1.05;;;1.50;99.90;;;;;;5032666;28;20043;-79
2022/11/18 11:27:37;;;;;;;3.03;0.80;;;1.30;99.90;;;;;;5033795;28;20053;-79
2022/11/18 11:30:15;;;;;;;4.35;1.20;;;1.30;99.90;;;;;;5033662;28;20099;-78
2022/11/18 11:33:21;;;;;;;4.20;1.33;;;1.60;99.90;;;;;;5048202;28;20060;-80
2022/11/18 11:36:11;;;;;;;3.72;1.10;;;2.90;99.90;;;;;;5053458;28;20045;-78
2022/11/18 11:38:57;;;;;;;3.70;1.25;;;4.10;99.90;;;;;;5053852;28;20049;-79
2022/11/18 11:41:30;;;;;;;1.65;1.23;;;5.20;99.90;;;;;;5052478;28;20464;-78
2022/11/18 11:44:19;;;;;;;6.70;1.35;;;5.50;99.90;;;;;;5085742;28;20049;-80
2022/11/18 11:49:53;;;;;;;3.97;1.30;;;5.50;99.90;;;;;;5046184;28;20046;-79
2022/11/18 11:52:33;;;;;;;5.07;1.77;;;5.90;99.90;;;;;;5033730;28;20059;-82
2022/11/18 11:55:22;;;;;;;5.30;1.40;;;6.10;99.90;;;;;;5035732;28;20140;-80
2022/11/18 11:58:09;;;;;;;4.43;1.30;;;5.90;99.90;;;;;;5041537;28;20056;-79
2022/11/18 12:00:43;;;;;;;5.03;1.55;;;5.30;99.90;;;;;;5033437;28;20067;-77
2022/11/18 12:03:46;;;;;;;3.92;1.08;;;4.70;99.90;;;;;;5033440;28;20049;-76
2022/11/18 12:06:14;;;;;;;3.95;1.20;;;3.70;99.90;;;;;;5035879;28;20033;-77
2022/11/18 12:08:57;;;;;;;1.23;1.02;;;2.90;99.90;;;;;;5027062;28;20042;-75
2022/11/18 12:11:35;;;;;;;1.83;1.02;;;2.30;99.90;;;;;;5047773;28;20047;-77
2022/11/18 12:14:11;;;;;;;2.22;0.93;;;2.10;99.90;;;;;;5051033;28;20505;-75
2022/11/18 12:16:49;;;;;;;1.33;1.20;;;1.70;99.90;;;;;;5049648;28;20072;-76
2022/11/18 12:19:19;;;;;;;5.70;1.42;;;1.40;99.90;;;;;;5034708;28;20484;-76
2022/11/18 12:21:59;;;;;;;1.45;1.10;;;1.00;99.90;;;;;;5052007;28;20107;-72
2022/11/18 12:24:38;;;;;;;1.65;1.10;;;0.60;99.90;;;;;;5042910;28;20051;-73
2022/11/18 12:27:58;;;;;;;1.10;0.80;;;0.20;99.90;;;;;;5051079;28;20226;-72
2022/11/18 12:30:25;;;;;;;2.72;1.23;;;-0.10;99.90;;;;;;5036479;28;20110;-70
2022/11/18 12:32:56;;;;;;;2.75;1.73;;;-0.30;99.90;;;;;;5051388;28;20041;-73
2022/11/18 12:35:28;;;;;;;4.20;1.20;;;-0.40;99.90;;;;;;5050935;28;20158;-73
2022/11/18 12:38:01;;;;;;;4.50;1.10;;;-0.50;99.90;;;;;;5065646;28;20072;-76
2022/11/18 12:40:42;;;;;;;1.42;1.00;;;-0.60;99.90;;;;;;5040075;28;20532;-71
2022/11/18 12:44:03;;;;;;;2.63;1.10;;;-0.70;99.90;;;;;;5048327;28;20147;-73
2022/11/18 12:46:53;;;;;;;4.00;1.20;;;-0.80;99.90;;;;;;5025037;28;20041;-73
2022/11/18 12:50:11;;;;;;;1.17;1.08;;;-0.80;99.90;;;;;;5049472;28;20053;-73
2022/11/18 12:52:53;;;;;;;3.05;1.13;;;-0.90;99.90;;;;;;5044304;28;20076;-72
2022/11/18 12:55:32;;;;;;;1.00;0.77;;;-0.90;99.90;;;;;;5048073;28;20044;-73
2022/11/18 12:58:00;;;;;;;2.00;1.10;;;-0.90;99.90;;;;;;5046828;28;20048;-72
2022/11/18 13:00:50;;;;;;;1.33;0.90;;;-0.90;99.90;;;;;;5065068;28;20048;-76
2022/11/18 13:03:30;;;;;;;1.10;0.90;;;-1.00;99.90;;;;;;5051260;28;20147;-74
2022/11/18 13:06:11;;;;;;;5.00;0.95;;;-1.00;99.90;;;;;;5049041;28;20055;-76
2022/11/18 13:08:41;;;;;;;1.50;1.00;;;-1.10;99.90;;;;;;5042070;28;20373;-77
2022/11/18 13:19:36;;;;;;;2.85;1.30;;;-1.20;99.90;;;;;;5048687;28;20044;-78
2022/11/18 13:24:51;;;;;;;3.50;1.20;;;-1.30;99.90;;;;;;5048782;28;20083;-76
2022/11/18 13:27:39;;;;;;;1.38;1.10;;;-1.30;99.90;;;;;;5065593;28;20044;-76
2022/11/18 13:30:12;;;;;;;2.03;1.50;;;-1.30;99.90;;;;;;5072851;28;20045;-75
2022/11/18 13:32:44;;;;;;;4.65;1.20;;;-1.40;99.90;;;;;;5036957;28;20549;-78
2022/11/18 13:35:16;;;;;;;4.93;1.55;;;-1.40;99.90;;;;;;5044290;28;20118;-74
2022/11/18 13:37:53;;;;;;;5.70;1.67;;;-1.40;99.90;;;;;;5028826;28;20041;-70
2022/11/18 13:40:23;;;;;;;2.08;1.60;;;-1.40;99.90;;;;;;5044497;28;20501;-77
2022/11/18 13:42:51;;;;;;;1.23;0.98;;;-1.50;99.90;;;;;;5048856;28;20214;-71